createdAt,value
2023-04-30T00:01:02.601Z,11.60
2023-04-30T00:03:30.037Z,11.60
2023-04-30T00:05:57.457Z,11.60
2023-04-30T00:08:24.719Z,11.60
2023-04-30T00:10:52.001Z,11.60
2023-04-30T00:13:19.426Z,11.50
2023-04-30T00:15:46.698Z,11.60
2023-04-30T00:18:14.043Z,11.50
2023-04-30T00:20:41.310Z,11.50
2023-04-30T00:23:08.542Z,11.50
2023-04-30T00:25:35.898Z,11.40
2023-04-30T00:28:03.137Z,11.40
2023-04-30T00:30:30.374Z,11.40
2023-04-30T00:32:57.690Z,11.30
2023-04-30T00:35:24.992Z,11.20
2023-04-30T00:37:52.321Z,11.20
2023-04-30T00:40:20.337Z,11.20
2023-04-30T00:42:48.710Z,11.20
2023-04-30T00:45:17.988Z,11.10
2023-04-30T00:47:45.263Z,11.10
2023-04-30T00:50:15.804Z,11.10
2023-04-30T00:52:43.787Z,11.10
2023-04-30T00:55:11.729Z,11.00
2023-04-30T00:57:40.757Z,11.00
2023-04-30T01:00:11.468Z,10.90
2023-04-30T01:02:38.948Z,10.90
2023-04-30T01:05:06.857Z,10.90
2023-04-30T01:07:39.041Z,11.00
2023-04-30T01:10:07.133Z,11.00
2023-04-30T01:12:49.757Z,10.90
2023-04-30T01:15:22.806Z,10.90
2023-04-30T01:17:52.974Z,10.90
2023-04-30T01:20:20.696Z,10.90
2023-04-30T01:22:54.095Z,10.90
2023-04-30T01:25:25.999Z,11.00
2023-04-30T01:28:07.845Z,10.90
2023-04-30T01:30:35.706Z,10.90
2023-04-30T01:33:03.258Z,10.90
2023-04-30T01:35:42.514Z,10.80
2023-04-30T01:38:18.756Z,10.80
2023-04-30T01:41:00.655Z,10.80
2023-04-30T01:43:39.835Z,10.90
2023-04-30T01:46:20.397Z,10.80
2023-04-30T01:49:06.211Z,10.80
2023-04-30T01:51:36.415Z,10.80
2023-04-30T01:54:09.099Z,10.80
2023-04-30T01:56:38.361Z,10.80
2023-04-30T01:59:06.091Z,10.80
2023-04-30T02:01:33.528Z,10.80
2023-04-30T02:04:01.091Z,10.80
2023-04-30T02:06:29.766Z,10.80
2023-04-30T02:09:02.458Z,10.80
2023-04-30T02:11:29.938Z,10.90
2023-04-30T02:13:57.277Z,10.90
2023-04-30T02:16:24.726Z,10.90
2023-04-30T02:18:52.084Z,10.90
2023-04-30T02:21:19.456Z,10.90
2023-04-30T02:23:46.945Z,10.90
2023-04-30T02:26:14.319Z,10.80
2023-04-30T02:28:42.447Z,10.80
2023-04-30T02:31:09.837Z,10.70
2023-04-30T02:33:37.170Z,10.70
2023-04-30T02:36:04.680Z,10.70
2023-04-30T02:38:31.990Z,10.70
2023-04-30T02:40:59.252Z,10.70
2023-04-30T02:43:26.503Z,10.70
2023-04-30T02:45:53.799Z,10.70
2023-04-30T02:48:21.151Z,10.70
2023-04-30T02:50:48.417Z,10.70
2023-04-30T02:53:15.669Z,10.70
2023-04-30T02:55:42.939Z,10.70
2023-04-30T02:58:10.362Z,10.60
2023-04-30T03:00:37.722Z,10.60
2023-04-30T03:03:05.105Z,10.60
2023-04-30T03:05:32.422Z,10.60
2023-04-30T03:07:59.726Z,10.60
2023-04-30T03:10:26.994Z,10.50
2023-04-30T03:12:55.287Z,10.50
2023-04-30T03:15:22.619Z,10.50
2023-04-30T03:17:49.892Z,10.50
2023-04-30T03:20:17.219Z,10.50
2023-04-30T03:22:44.491Z,10.50
2023-04-30T03:25:11.794Z,10.50
2023-04-30T03:27:39.172Z,10.50
2023-04-30T03:30:07.331Z,10.40
2023-04-30T03:32:34.661Z,10.40
2023-04-30T03:35:01.985Z,10.40
2023-04-30T03:37:29.289Z,10.40
2023-04-30T03:39:56.763Z,10.40
2023-04-30T03:42:24.228Z,10.40
2023-04-30T03:44:51.462Z,10.40
2023-04-30T03:47:18.813Z,10.30
2023-04-30T03:49:46.158Z,10.20
2023-04-30T03:52:13.383Z,10.20
2023-04-30T03:54:40.784Z,10.20
2023-04-30T03:57:10.706Z,10.20
2023-04-30T03:59:38.073Z,10.30
2023-04-30T04:02:06.470Z,10.30
2023-04-30T04:04:33.895Z,10.30
2023-04-30T04:07:03.040Z,10.30
2023-04-30T04:09:30.558Z,10.30
2023-04-30T04:11:58.019Z,10.30
2023-04-30T04:14:25.492Z,10.30
2023-04-30T04:16:52.850Z,10.20
2023-04-30T04:19:20.130Z,10.20
2023-04-30T04:21:47.363Z,10.10
2023-04-30T04:24:14.733Z,10.20
2023-04-30T04:26:42.556Z,10.10
2023-04-30T04:29:10.323Z,10.10
2023-04-30T04:31:38.547Z,10.10
2023-04-30T04:34:06.035Z,10.00
2023-04-30T04:36:34.250Z,10.00
2023-04-30T04:39:02.148Z,10.00
2023-04-30T04:41:29.971Z,10.00
2023-04-30T04:43:57.238Z,9.90
2023-04-30T04:46:24.938Z,9.90
2023-04-30T04:48:53.238Z,9.90
2023-04-30T04:51:20.663Z,9.90
2023-04-30T04:53:47.951Z,9.90
2023-04-30T04:56:15.864Z,9.90
2023-04-30T04:58:44.381Z,9.80
2023-04-30T05:01:11.523Z,9.90
2023-04-30T05:03:38.998Z,9.80
2023-04-30T05:06:06.468Z,9.80
2023-04-30T05:08:33.908Z,9.80
2023-04-30T05:11:01.869Z,9.80
2023-04-30T05:13:29.171Z,9.90
2023-04-30T05:15:56.574Z,9.90
2023-04-30T05:18:23.881Z,9.90
2023-04-30T05:20:51.257Z,9.90
2023-04-30T05:23:18.538Z,9.90
2023-04-30T05:25:46.241Z,9.90
2023-04-30T05:28:13.532Z,10.00
2023-04-30T05:30:40.888Z,10.00
2023-04-30T05:33:08.492Z,10.00
2023-04-30T05:35:36.228Z,10.10
2023-04-30T05:38:03.762Z,10.00
2023-04-30T05:40:31.873Z,10.00
2023-04-30T05:42:59.108Z,10.00
2023-04-30T05:45:26.916Z,10.10
2023-04-30T05:47:54.225Z,10.10
2023-04-30T05:50:21.514Z,10.10
2023-04-30T05:52:48.821Z,10.10
2023-04-30T05:55:16.144Z,10.10
2023-04-30T05:57:43.468Z,10.10
2023-04-30T06:00:12.524Z,10.10
2023-04-30T06:02:39.842Z,10.10
2023-04-30T06:05:10.177Z,10.20
2023-04-30T06:07:37.746Z,10.20
2023-04-30T06:10:05.297Z,10.20
2023-04-30T06:12:32.641Z,10.20
2023-04-30T06:14:59.935Z,10.30
2023-04-30T06:17:28.111Z,10.40
2023-04-30T06:19:55.673Z,10.50
2023-04-30T06:22:23.414Z,10.60
2023-04-30T06:24:50.664Z,10.60
2023-04-30T06:27:17.954Z,10.70
2023-04-30T06:29:45.365Z,10.80
2023-04-30T06:32:12.672Z,10.80
2023-04-30T06:34:39.976Z,10.90
2023-04-30T06:37:07.323Z,10.90
2023-04-30T06:39:34.578Z,11.00
2023-04-30T06:42:01.873Z,11.00
2023-04-30T06:44:29.134Z,11.00
2023-04-30T06:46:56.386Z,11.10
2023-04-30T06:49:23.618Z,11.00
2023-04-30T06:51:50.988Z,11.10
2023-04-30T06:54:18.240Z,11.20
2023-04-30T06:56:45.595Z,11.30
2023-04-30T06:59:12.856Z,11.30
2023-04-30T07:01:40.987Z,11.40
2023-04-30T07:04:08.474Z,11.50
2023-04-30T07:06:35.814Z,11.50
2023-04-30T07:09:03.496Z,11.50
2023-04-30T07:11:31.139Z,11.50
2023-04-30T07:13:58.465Z,11.60
2023-04-30T07:16:28.044Z,11.70
2023-04-30T07:18:55.764Z,11.80
2023-04-30T07:21:25.518Z,11.90
2023-04-30T07:23:52.800Z,12.00
2023-04-30T07:26:20.954Z,12.00
2023-04-30T07:28:49.862Z,12.10
2023-04-30T07:31:17.348Z,12.20
2023-04-30T07:33:45.076Z,12.30
2023-04-30T07:36:12.376Z,12.40
2023-04-30T07:38:39.548Z,12.40
2023-04-30T07:41:06.677Z,12.50
2023-04-30T07:43:33.921Z,12.60
2023-04-30T07:46:01.439Z,12.70
2023-04-30T07:48:28.711Z,12.80
2023-04-30T07:50:56.776Z,12.90
2023-04-30T07:53:24.173Z,13.00
2023-04-30T07:55:51.505Z,13.10
2023-04-30T07:58:18.806Z,13.10
2023-04-30T08:00:46.192Z,13.20
2023-04-30T08:03:13.650Z,13.30
2023-04-30T08:05:41.541Z,13.20
2023-04-30T08:08:08.893Z,13.30
2023-04-30T08:10:37.355Z,13.40
2023-04-30T08:13:05.534Z,13.40
2023-04-30T08:15:35.868Z,13.60
2023-04-30T08:18:03.879Z,13.60
2023-04-30T08:20:32.104Z,13.70
2023-04-30T08:22:59.449Z,13.80
2023-04-30T08:25:26.833Z,13.80
2023-04-30T08:27:54.174Z,13.80
2023-04-30T08:30:21.473Z,13.90
2023-04-30T08:32:49.369Z,14.00
2023-04-30T08:35:17.124Z,14.20
2023-04-30T08:37:44.407Z,14.20
2023-04-30T08:40:12.307Z,14.30
2023-04-30T08:42:43.311Z,14.30
2023-04-30T08:45:12.980Z,14.30
2023-04-30T08:47:41.092Z,14.30
2023-04-30T08:50:08.668Z,14.40
2023-04-30T08:52:37.265Z,14.30
2023-04-30T08:55:07.095Z,14.40
2023-04-30T08:57:34.374Z,14.50
2023-04-30T09:00:01.734Z,14.50
2023-04-30T09:02:31.690Z,14.50
2023-04-30T09:04:59.055Z,14.60
2023-04-30T09:07:29.077Z,14.70
2023-04-30T09:09:56.720Z,14.80
2023-04-30T09:12:24.062Z,15.00
2023-04-30T09:15:01.636Z,15.20
2023-04-30T09:17:29.331Z,15.30
2023-04-30T09:20:12.877Z,15.40
2023-04-30T09:22:41.318Z,15.60
2023-04-30T09:25:09.365Z,15.60
2023-04-30T09:27:36.832Z,15.70
2023-04-30T09:30:04.722Z,15.60
2023-04-30T09:32:32.189Z,15.60
2023-04-30T09:34:59.552Z,15.70
2023-04-30T09:37:38.996Z,15.80
2023-04-30T09:40:06.922Z,15.80
2023-04-30T09:42:34.207Z,16.00
2023-04-30T09:45:01.572Z,16.10
2023-04-30T09:47:30.765Z,16.10
2023-04-30T09:49:59.544Z,16.20
2023-04-30T09:52:27.026Z,16.20
2023-04-30T09:54:54.441Z,16.20
2023-04-30T09:57:23.410Z,16.20
2023-04-30T09:59:52.502Z,16.30
2023-04-30T10:02:20.932Z,16.30
2023-04-30T10:04:53.544Z,16.40
2023-04-30T10:07:25.474Z,16.50
2023-04-30T10:09:56.191Z,16.60
2023-04-30T10:12:39.032Z,16.60
2023-04-30T10:15:11.009Z,16.50
2023-04-30T10:17:41.344Z,16.40
2023-04-30T10:20:10.076Z,16.30
2023-04-30T10:22:38.645Z,16.50
2023-04-30T10:25:07.429Z,16.60
2023-04-30T10:27:36.355Z,16.80
2023-04-30T10:30:04.754Z,16.80
2023-04-30T10:32:39.385Z,16.90
2023-04-30T10:35:22.648Z,17.00
2023-04-30T10:37:55.322Z,17.00
2023-04-30T10:40:22.880Z,17.00
2023-04-30T10:42:55.885Z,16.90
2023-04-30T10:45:34.770Z,16.90
2023-04-30T10:48:06.801Z,17.00
2023-04-30T10:50:40.433Z,17.10
2023-04-30T10:53:12.507Z,17.30
2023-04-30T10:56:09.511Z,17.40
2023-04-30T10:58:40.278Z,17.30
2023-04-30T11:01:14.985Z,17.20
2023-04-30T11:03:43.399Z,17.30
2023-04-30T11:06:15.134Z,17.40
2023-04-30T11:08:46.351Z,17.60
2023-04-30T11:11:23.029Z,17.70
2023-04-30T11:13:59.606Z,17.70
2023-04-30T11:16:29.907Z,17.70
2023-04-30T11:19:05.919Z,17.70
2023-04-30T11:21:34.311Z,17.90
2023-04-30T11:24:05.154Z,18.10
2023-04-30T11:26:51.409Z,18.20
2023-04-30T11:29:19.397Z,18.30
2023-04-30T11:31:47.119Z,18.00
2023-04-30T11:34:15.316Z,17.70
2023-04-30T11:36:45.170Z,17.60
2023-04-30T11:39:15.092Z,17.60
2023-04-30T11:41:43.448Z,17.80
2023-04-30T11:44:24.053Z,18.00
2023-04-30T11:46:51.553Z,18.20
2023-04-30T11:49:20.802Z,18.00
2023-04-30T11:51:49.015Z,17.70
2023-04-30T11:54:16.706Z,17.80
2023-04-30T11:56:48.712Z,17.90
2023-04-30T11:59:16.687Z,18.00
2023-04-30T12:01:44.524Z,18.10
2023-04-30T12:04:12.291Z,18.10
2023-04-30T12:06:40.018Z,18.10
2023-04-30T12:09:09.414Z,18.00
2023-04-30T12:11:36.930Z,18.10
2023-04-30T12:14:10.684Z,18.20
2023-04-30T12:16:42.213Z,18.20
2023-04-30T12:19:10.043Z,18.10
2023-04-30T12:21:38.814Z,18.20
2023-04-30T12:24:07.257Z,18.40
2023-04-30T12:26:35.918Z,18.50
2023-04-30T12:29:04.385Z,18.50
2023-04-30T12:31:33.751Z,18.50
2023-04-30T12:34:05.866Z,18.40
2023-04-30T12:36:34.257Z,18.40
2023-04-30T12:39:03.294Z,18.30
2023-04-30T12:41:31.564Z,18.40
2023-04-30T12:44:34.648Z,18.50
2023-04-30T12:47:07.184Z,18.60
2023-04-30T12:49:35.422Z,18.50
2023-04-30T12:52:05.036Z,18.60
2023-04-30T12:54:35.294Z,18.50
2023-04-30T12:57:03.702Z,18.40
2023-04-30T12:59:32.407Z,18.20
2023-04-30T13:02:14.921Z,18.20
2023-04-30T13:04:42.893Z,18.10
2023-04-30T13:07:11.942Z,18.20
2023-04-30T13:09:39.950Z,18.50
2023-04-30T13:12:07.585Z,18.90
2023-04-30T13:14:36.025Z,19.10
2023-04-30T13:17:07.055Z,19.10
2023-04-30T13:19:35.234Z,19.00
2023-04-30T13:22:02.674Z,19.10
2023-04-30T13:24:31.227Z,19.00
2023-04-30T13:26:59.349Z,18.70
2023-04-30T13:29:26.796Z,18.80
2023-04-30T13:31:54.192Z,18.70
2023-04-30T13:34:21.809Z,18.70
2023-04-30T13:36:49.054Z,19.00
2023-04-30T13:39:16.355Z,19.10
2023-04-30T13:41:43.635Z,19.20
2023-04-30T13:44:11.431Z,19.20
2023-04-30T13:46:38.709Z,19.00
2023-04-30T13:49:06.252Z,19.20
2023-04-30T13:51:33.322Z,19.20
2023-04-30T13:54:00.565Z,19.30
2023-04-30T13:56:27.869Z,19.40
2023-04-30T13:58:55.069Z,19.20
2023-04-30T14:01:22.446Z,19.30
2023-04-30T14:03:49.971Z,19.40
2023-04-30T14:06:17.363Z,19.40
2023-04-30T14:08:46.130Z,19.30
2023-04-30T14:11:13.388Z,19.30
2023-04-30T14:13:41.558Z,19.20
2023-04-30T14:16:08.925Z,19.30
2023-04-30T14:18:36.299Z,19.40
2023-04-30T14:21:03.511Z,19.50
2023-04-30T14:23:31.166Z,19.30
2023-04-30T14:25:58.464Z,19.40
2023-04-30T14:28:25.723Z,19.70
2023-04-30T14:30:52.982Z,19.80
2023-04-30T14:33:20.203Z,19.70
2023-04-30T14:35:47.577Z,19.40
2023-04-30T14:38:15.268Z,19.40
2023-04-30T14:40:43.992Z,19.50
2023-04-30T14:43:11.645Z,19.60
2023-04-30T14:45:40.059Z,19.60
2023-04-30T14:48:07.998Z,19.50
2023-04-30T14:50:35.310Z,19.30
2023-04-30T14:53:04.040Z,19.20
2023-04-30T14:55:31.630Z,19.20
2023-04-30T14:57:58.959Z,19.10
2023-04-30T15:00:26.341Z,19.00
2023-04-30T15:02:53.646Z,18.90
2023-04-30T15:05:21.300Z,18.90
2023-04-30T15:07:48.551Z,18.80
2023-04-30T15:10:16.527Z,18.70
2023-04-30T15:12:43.807Z,18.60
2023-04-30T15:15:11.350Z,18.60
2023-04-30T15:17:38.811Z,18.50
2023-04-30T15:20:06.556Z,18.40
2023-04-30T15:22:34.055Z,18.30
2023-04-30T15:25:01.494Z,18.20
2023-04-30T15:27:28.815Z,18.30
2023-04-30T15:29:56.380Z,18.30
2023-04-30T15:32:23.947Z,18.30
2023-04-30T15:34:51.245Z,18.30
2023-04-30T15:37:18.492Z,18.20
2023-04-30T15:39:47.814Z,18.20
2023-04-30T15:42:16.360Z,18.00
2023-04-30T15:44:43.651Z,17.90
2023-04-30T15:47:11.569Z,17.90
2023-04-30T15:49:38.862Z,18.00
2023-04-30T15:52:06.865Z,18.00
2023-04-30T15:54:34.199Z,17.90
2023-04-30T15:57:02.961Z,17.90
2023-04-30T15:59:30.235Z,17.80
2023-04-30T16:01:57.623Z,17.80
2023-04-30T16:04:24.921Z,17.80
2023-04-30T16:06:52.110Z,17.80
2023-04-30T16:09:20.445Z,17.70
2023-04-30T16:11:48.359Z,17.60
2023-04-30T16:14:15.826Z,17.50
2023-04-30T16:16:43.165Z,17.50
2023-04-30T16:19:12.334Z,17.50
2023-04-30T16:21:39.655Z,17.50
2023-04-30T16:24:07.361Z,17.40
2023-04-30T16:26:34.909Z,17.40
2023-04-30T16:29:02.728Z,17.40
2023-04-30T16:31:30.496Z,17.40
2023-04-30T16:33:57.778Z,17.40
2023-04-30T16:36:25.081Z,17.30
2023-04-30T16:38:52.363Z,17.30
2023-04-30T16:41:20.646Z,17.20
2023-04-30T16:43:47.934Z,17.20
2023-04-30T16:46:15.197Z,17.10
2023-04-30T16:48:42.577Z,17.10
2023-04-30T16:51:09.824Z,17.10
2023-04-30T16:53:37.265Z,17.00
2023-04-30T16:56:04.949Z,17.00
2023-04-30T16:58:32.327Z,16.90
2023-04-30T17:00:59.605Z,17.00
2023-04-30T17:03:27.023Z,16.90
2023-04-30T17:05:54.397Z,16.90
2023-04-30T17:08:21.682Z,16.80
2023-04-30T17:10:48.943Z,16.80
2023-04-30T17:13:16.306Z,16.80
2023-04-30T17:15:44.327Z,16.70
2023-04-30T17:18:11.858Z,16.70
2023-04-30T17:20:39.309Z,16.70
2023-04-30T17:23:06.578Z,16.60
2023-04-30T17:25:34.028Z,16.60
2023-04-30T17:28:01.612Z,16.60
2023-04-30T17:30:29.075Z,16.50
2023-04-30T17:32:56.787Z,16.50
2023-04-30T17:35:24.174Z,16.50
2023-04-30T17:37:51.538Z,16.40
2023-04-30T17:40:18.769Z,16.40
2023-04-30T17:42:46.303Z,16.40
2023-04-30T17:45:13.781Z,16.40
2023-04-30T17:47:41.090Z,16.30
2023-04-30T17:50:08.840Z,16.30
2023-04-30T17:52:38.620Z,16.30
2023-04-30T17:55:09.171Z,16.20
2023-04-30T17:57:36.797Z,16.20
2023-04-30T18:00:05.164Z,16.10
2023-04-30T18:02:33.112Z,16.10
2023-04-30T18:05:00.389Z,16.10
2023-04-30T18:07:27.594Z,16.00
2023-04-30T18:09:55.252Z,16.00
2023-04-30T18:12:23.938Z,16.00
2023-04-30T18:14:51.232Z,15.90
2023-04-30T18:17:18.512Z,15.90
2023-04-30T18:19:48.707Z,15.90
2023-04-30T18:22:15.971Z,15.80
2023-04-30T18:24:43.203Z,15.90
2023-04-30T18:27:10.610Z,15.80
2023-04-30T18:29:38.091Z,15.70
2023-04-30T18:32:05.448Z,15.70
2023-04-30T18:34:32.737Z,15.70
2023-04-30T18:37:00.485Z,15.60
2023-04-30T18:39:27.762Z,15.60
2023-04-30T18:41:55.000Z,15.50
2023-04-30T18:44:28.429Z,15.40
2023-04-30T18:46:55.859Z,15.40
2023-04-30T18:49:23.330Z,15.30
2023-04-30T18:51:52.154Z,15.30
2023-04-30T18:54:19.396Z,15.30
2023-04-30T18:56:47.175Z,15.30
2023-04-30T18:59:14.877Z,15.30
2023-04-30T19:01:42.631Z,15.30
2023-04-30T19:04:15.876Z,15.30
2023-04-30T19:06:43.796Z,15.20
2023-04-30T19:09:11.637Z,15.10
2023-04-30T19:11:38.958Z,15.00
2023-04-30T19:14:06.501Z,14.90
2023-04-30T19:16:33.902Z,14.90
2023-04-30T19:19:01.822Z,14.90
2023-04-30T19:21:30.639Z,14.90
2023-04-30T19:23:58.148Z,14.80
2023-04-30T19:26:25.891Z,14.90
2023-04-30T19:28:53.379Z,14.90
2023-04-30T19:31:21.438Z,14.80
2023-04-30T19:33:48.754Z,14.80
2023-04-30T19:36:17.295Z,14.80
2023-04-30T19:38:44.559Z,14.90
2023-04-30T19:41:12.026Z,14.80
2023-04-30T19:43:39.444Z,14.80
2023-04-30T19:46:07.757Z,14.80
2023-04-30T19:48:35.217Z,14.80
2023-04-30T19:51:03.681Z,14.80
2023-04-30T19:53:31.059Z,14.80
2023-04-30T19:55:59.758Z,14.90
2023-04-30T19:58:27.049Z,14.80
2023-04-30T20:00:55.866Z,14.80
2023-04-30T20:03:25.103Z,15.00
2023-04-30T20:05:52.601Z,14.70
2023-04-30T20:08:20.077Z,14.70
2023-04-30T20:10:47.984Z,14.70
2023-04-30T20:13:16.071Z,14.70
2023-04-30T20:15:43.525Z,14.60
2023-04-30T20:18:12.522Z,14.70
2023-04-30T20:20:39.900Z,14.70
2023-04-30T20:23:14.305Z,14.70
2023-04-30T20:25:45.404Z,14.70
2023-04-30T20:28:13.568Z,14.50
2023-04-30T20:30:43.844Z,14.60
2023-04-30T20:33:14.359Z,14.60
2023-04-30T20:35:43.985Z,14.60
2023-04-30T20:38:12.073Z,14.50
2023-04-30T20:40:40.531Z,14.50
2023-04-30T20:43:08.644Z,14.50
2023-04-30T20:45:36.463Z,14.50
2023-04-30T20:48:04.087Z,14.50
2023-04-30T20:50:31.457Z,14.40
2023-04-30T20:52:58.757Z,14.40
2023-04-30T20:55:26.770Z,14.40
2023-04-30T20:57:54.084Z,14.40
2023-04-30T21:00:21.379Z,14.40
2023-04-30T21:02:48.718Z,14.30
2023-04-30T21:05:16.188Z,14.30
2023-04-30T21:07:43.448Z,14.30
2023-04-30T21:10:11.106Z,14.30
2023-04-30T21:12:38.354Z,14.30
2023-04-30T21:15:05.845Z,14.30
2023-04-30T21:17:33.188Z,14.40
2023-04-30T21:20:00.657Z,14.40
2023-04-30T21:22:28.741Z,14.30
2023-04-30T21:24:56.964Z,14.30
2023-04-30T21:27:24.284Z,14.30
2023-04-30T21:29:51.530Z,14.30
2023-04-30T21:32:18.854Z,14.20
2023-04-30T21:34:46.292Z,14.30
2023-04-30T21:37:15.697Z,14.30
2023-04-30T21:39:44.284Z,14.20
2023-04-30T21:42:11.532Z,14.30
2023-04-30T21:44:39.910Z,14.30
2023-04-30T21:47:10.552Z,14.30
2023-04-30T21:49:37.893Z,14.20
2023-04-30T21:52:08.085Z,14.30
2023-04-30T21:54:35.509Z,14.20
2023-04-30T21:57:02.868Z,14.20
2023-04-30T21:59:30.321Z,14.20
2023-04-30T22:01:58.433Z,14.20
2023-04-30T22:04:26.686Z,14.10
2023-04-30T22:06:54.417Z,14.20
2023-04-30T22:09:21.745Z,14.20
2023-04-30T22:11:49.714Z,14.20
2023-04-30T22:14:17.051Z,14.20
2023-04-30T22:16:44.436Z,14.20
2023-04-30T22:19:11.701Z,14.20
2023-04-30T22:21:39.051Z,14.20
2023-04-30T22:24:06.968Z,14.20
2023-04-30T22:26:34.778Z,14.10
2023-04-30T22:29:02.047Z,14.20
2023-04-30T22:31:29.369Z,14.10
2023-04-30T22:33:56.791Z,14.10
2023-04-30T22:36:25.857Z,14.10
2023-04-30T22:38:53.105Z,14.10
2023-04-30T22:41:22.332Z,14.10
2023-04-30T22:43:49.733Z,14.10
2023-04-30T22:46:17.657Z,14.10
2023-04-30T22:48:44.969Z,14.10
2023-04-30T22:51:12.388Z,14.10
2023-04-30T22:53:39.739Z,14.10
2023-04-30T22:56:07.154Z,14.10
2023-04-30T22:58:34.611Z,14.00
2023-04-30T23:01:01.903Z,14.00
2023-04-30T23:03:29.189Z,14.00
2023-04-30T23:05:58.601Z,14.00
2023-04-30T23:08:26.369Z,14.00
2023-04-30T23:10:55.560Z,13.90
2023-04-30T23:13:23.012Z,13.90
2023-04-30T23:15:50.324Z,13.90
2023-04-30T23:18:18.568Z,13.90
2023-04-30T23:20:45.827Z,13.90
2023-04-30T23:23:13.050Z,13.90
2023-04-30T23:25:40.375Z,13.90
2023-04-30T23:28:07.671Z,13.80
2023-04-30T23:30:37.523Z,13.80
2023-04-30T23:33:04.906Z,13.70
2023-04-30T23:35:32.282Z,13.70
2023-04-30T23:37:59.554Z,13.70
2023-04-30T23:40:26.790Z,13.70
2023-04-30T23:42:54.091Z,13.80
2023-04-30T23:45:22.459Z,13.70
2023-04-30T23:47:49.720Z,13.70
2023-04-30T23:50:17.112Z,13.70
2023-04-30T23:52:44.428Z,13.60
2023-04-30T23:55:11.738Z,13.60
2023-04-30T23:57:39.004Z,13.60
